Time;durP1;ratioP1;P1;durP2;ratioP2;P2;SDS_P1;SDS_P2;PMS_P1;PMS_P2;Temp;Humidity;BMP_temperature;BMP_pressure;BME280_temperature;BME280_humidity;BME280_pressure;Samples;Min_cycle;Max_cycle;Signal;HPM_P1;HPM_P2
2021/11/03 00:02:18;;;;;;;17.83;9.47;;;;;;;;;;5100702;28;20552;-80
2021/11/03 00:04:45;;;;;;;17.70;9.13;;;;;;;;;;5102990;28;20912;-81
2021/11/03 00:07:13;;;;;;;16.17;8.93;;;;;;;;;;5095208;28;20869;-81
2021/11/03 00:09:40;;;;;;;17.63;8.53;;;;;;;;;;5097179;28;20479;-81
2021/11/03 00:12:08;;;;;;;14.77;9.87;;;;;;;;;;5094928;28;20453;-81
2021/11/03 00:14:36;;;;;;;16.40;8.80;;;;;;;;;;5096687;28;20837;-81
2021/11/03 00:17:04;;;;;;;14.37;8.73;;;;;;;;;;5094226;28;20454;-81
2021/11/03 00:19:31;;;;;;;16.67;9.90;;;;;;;;;;5095457;28;20477;-80
2021/11/03 00:21:58;;;;;;;14.80;9.00;;;;;;;;;;5094535;28;20455;-80
2021/11/03 00:24:25;;;;;;;15.60;8.37;;;;;;;;;;5095017;28;20459;-80
2021/11/03 00:26:52;;;;;;;160.63;23.40;;;;;;;;;;5094166;28;20492;-80
2021/11/03 00:29:19;;;;;;;13.93;8.70;;;;;;;;;;5094083;28;20457;-82
2021/11/03 00:31:48;;;;;;;14.13;7.73;;;;;;;;;;5111191;28;20956;-81
2021/11/03 00:34:15;;;;;;;17.60;9.03;;;;;;;;;;5093898;28;20611;-81
2021/11/03 00:36:42;;;;;;;16.20;8.60;;;;;;;;;;5095843;28;20452;-80
2021/11/03 00:39:09;;;;;;;16.60;8.67;;;;;;;;;;5107286;28;20452;-81
2021/11/03 00:41:36;;;;;;;13.50;8.77;;;;;;;;;;5094508;28;20842;-80
2021/11/03 00:44:04;;;;;;;21.27;9.53;;;;;;;;;;5094892;28;20459;-80
2021/11/03 00:46:31;;;;;;;13.67;8.60;;;;;;;;;;5094135;28;20488;-81
2021/11/03 00:48:59;;;;;;;17.13;8.57;;;;;;;;;;5102464;28;20464;-80
2021/11/03 00:51:26;;;;;;;19.30;10.53;;;;;;;;;;5101501;28;20477;-80
2021/11/03 00:53:53;;;;;;;16.33;8.27;;;;;;;;;;5107234;28;20460;-81
2021/11/03 00:56:21;;;;;;;15.93;8.47;;;;;;;;;;5107382;28;20459;-80
2021/11/03 00:58:48;;;;;;;14.77;8.20;;;;;;;;;;5100110;28;20945;-81
2021/11/03 01:01:15;;;;;;;16.33;9.07;;;;;;;;;;5090757;28;20499;-81
2021/11/03 01:03:42;;;;;;;22.40;10.73;;;;;;;;;;5093718;28;20448;-81
2021/11/03 01:06:10;;;;;;;17.20;8.37;;;;;;;;;;5085450;28;20463;-80
2021/11/03 01:08:37;;;;;;;16.80;9.33;;;;;;;;;;5089678;28;20818;-80
2021/11/03 01:11:05;;;;;;;17.73;8.67;;;;;;;;;;5096910;28;20472;-80
2021/11/03 01:13:32;;;;;;;16.30;9.50;;;;;;;;;;5098026;28;20455;-80
2021/11/03 01:15:59;;;;;;;14.13;9.67;;;;;;;;;;5093790;28;20460;-80
2021/11/03 01:18:27;;;;;;;15.97;9.13;;;;;;;;;;5099954;28;20783;-80
2021/11/03 01:20:54;;;;;;;14.60;9.57;;;;;;;;;;5093283;28;20474;-80
2021/11/03 01:23:23;;;;;;;15.67;9.30;;;;;;;;;;5093341;28;20824;-80
2021/11/03 01:25:51;;;;;;;19.00;9.40;;;;;;;;;;5095716;28;20457;-80
2021/11/03 01:28:18;;;;;;;16.13;8.73;;;;;;;;;;5097763;28;20557;-80
2021/11/03 01:30:46;;;;;;;16.20;9.57;;;;;;;;;;5102090;28;20480;-80
2021/11/03 01:33:14;;;;;;;16.57;10.30;;;;;;;;;;5098470;28;21013;-80
2021/11/03 01:35:41;;;;;;;17.60;10.33;;;;;;;;;;5093298;28;20457;-79
2021/11/03 01:38:08;;;;;;;18.80;10.63;;;;;;;;;;5094470;28;20449;-80
2021/11/03 01:40:38;;;;;;;17.50;9.40;;;;;;;;;;5097024;28;20841;-80
2021/11/03 01:43:06;;;;;;;17.20;8.93;;;;;;;;;;5088963;28;20479;-80
2021/11/03 01:45:34;;;;;;;17.80;9.33;;;;;;;;;;5094312;28;20456;-80
2021/11/03 01:48:02;;;;;;;15.73;9.60;;;;;;;;;;5097447;28;20489;-80
2021/11/03 01:50:33;;;;;;;17.97;9.60;;;;;;;;;;5096790;28;20468;-80
2021/11/03 01:53:03;;;;;;;13.67;8.97;;;;;;;;;;5098139;28;20950;-81
2021/11/03 01:55:33;;;;;;;17.17;9.53;;;;;;;;;;5113211;28;20469;-80
2021/11/03 01:58:05;;;;;;;17.37;11.30;;;;;;;;;;5100889;28;20446;-81
2021/11/03 02:00:35;;;;;;;16.40;10.23;;;;;;;;;;5106286;28;20476;-81
2021/11/03 02:03:05;;;;;;;17.77;10.47;;;;;;;;;;5100279;28;20838;-80
2021/11/03 02:05:32;;;;;;;20.90;10.07;;;;;;;;;;5100090;28;20453;-80
2021/11/03 02:08:00;;;;;;;16.90;10.40;;;;;;;;;;5101046;28;20497;-80
2021/11/03 02:10:28;;;;;;;18.50;10.33;;;;;;;;;;5106250;28;20475;-81
2021/11/03 02:12:55;;;;;;;17.77;10.93;;;;;;;;;;5105140;28;20456;-80
2021/11/03 02:15:24;;;;;;;17.57;9.47;;;;;;;;;;5107660;28;20460;-80
2021/11/03 02:17:51;;;;;;;17.53;10.57;;;;;;;;;;5106726;28;20450;-80
2021/11/03 02:20:19;;;;;;;18.23;10.80;;;;;;;;;;5115251;28;20475;-80
2021/11/03 02:22:50;;;;;;;16.57;9.40;;;;;;;;;;5113521;28;20592;-80
2021/11/03 02:25:20;;;;;;;17.47;10.80;;;;;;;;;;5112939;28;20467;-80
2021/11/03 02:27:48;;;;;;;16.70;9.93;;;;;;;;;;5112251;28;20476;-80
2021/11/03 02:30:18;;;;;;;17.43;9.93;;;;;;;;;;5112580;28;20482;-80
2021/11/03 02:32:45;;;;;;;17.27;11.10;;;;;;;;;;5106679;28;20518;-81
2021/11/03 02:35:12;;;;;;;21.10;12.73;;;;;;;;;;5110769;28;20445;-80
2021/11/03 02:37:45;;;;;;;19.00;12.00;;;;;;;;;;5111060;28;20453;-81
2021/11/03 02:40:36;;;;;;;16.90;10.93;;;;;;;;;;5110144;28;20462;-80
2021/11/03 02:43:05;;;;;;;17.03;10.73;;;;;;;;;;5091287;28;20452;-81
2021/11/03 02:45:35;;;;;;;17.50;9.80;;;;;;;;;;5112031;28;20458;-80
2021/11/03 02:48:02;;;;;;;18.83;10.57;;;;;;;;;;5111088;28;20487;-81
2021/11/03 02:50:29;;;;;;;21.10;11.93;;;;;;;;;;5105106;28;20472;-82
2021/11/03 02:52:57;;;;;;;20.80;11.67;;;;;;;;;;5097706;28;20548;-82
2021/11/03 02:55:24;;;;;;;18.63;10.57;;;;;;;;;;5098438;28;20458;-81
2021/11/03 02:57:51;;;;;;;18.13;11.10;;;;;;;;;;5098013;28;20960;-82
2021/11/03 03:00:25;;;;;;;17.83;11.20;;;;;;;;;;5097453;28;20479;-81
2021/11/03 03:02:52;;;;;;;17.37;10.20;;;;;;;;;;5098462;28;20467;-81
2021/11/03 03:05:19;;;;;;;17.20;11.20;;;;;;;;;;5098232;28;20449;-81
2021/11/03 03:07:46;;;;;;;18.23;10.93;;;;;;;;;;5105082;28;20491;-82
2021/11/03 03:10:13;;;;;;;17.20;10.03;;;;;;;;;;5097355;28;20483;-81
2021/11/03 03:12:40;;;;;;;17.30;10.10;;;;;;;;;;5097311;28;20496;-82
2021/11/03 03:15:07;;;;;;;19.20;11.23;;;;;;;;;;5097165;28;20821;-81
2021/11/03 03:17:36;;;;;;;18.07;9.87;;;;;;;;;;5098785;28;20460;-81
2021/11/03 03:20:04;;;;;;;17.57;10.20;;;;;;;;;;5099136;28;20488;-81
2021/11/03 03:22:31;;;;;;;17.90;10.33;;;;;;;;;;5108439;28;20455;-81
2021/11/03 03:24:58;;;;;;;18.57;10.50;;;;;;;;;;5091429;28;20462;-81
2021/11/03 03:27:25;;;;;;;19.43;11.80;;;;;;;;;;5094432;28;20494;-81
2021/11/03 03:29:52;;;;;;;20.43;10.00;;;;;;;;;;5102783;28;20478;-81
2021/11/03 03:32:21;;;;;;;16.10;9.73;;;;;;;;;;5092963;28;20464;-82
2021/11/03 03:34:49;;;;;;;18.70;10.53;;;;;;;;;;5100138;28;20468;-80
2021/11/03 03:37:16;;;;;;;15.93;9.97;;;;;;;;;;5102566;28;20958;-80
2021/11/03 03:39:44;;;;;;;17.97;11.17;;;;;;;;;;5098734;28;20471;-80
2021/11/03 03:42:13;;;;;;;19.97;10.70;;;;;;;;;;5097056;28;20458;-81
2021/11/03 03:44:41;;;;;;;15.53;9.97;;;;;;;;;;5096577;28;20456;-80
2021/11/03 03:47:08;;;;;;;22.57;10.40;;;;;;;;;;5099995;28;20490;-81
2021/11/03 03:49:36;;;;;;;18.03;10.00;;;;;;;;;;5116294;28;20470;-80
2021/11/03 03:52:05;;;;;;;17.60;10.27;;;;;;;;;;5103227;28;20461;-80
2021/11/03 03:54:32;;;;;;;16.60;10.03;;;;;;;;;;5100176;28;20460;-81
2021/11/03 03:56:59;;;;;;;19.23;10.30;;;;;;;;;;5086401;28;20456;-81
2021/11/03 03:59:26;;;;;;;20.93;12.13;;;;;;;;;;5098472;28;20491;-82
2021/11/03 04:01:54;;;;;;;17.70;9.93;;;;;;;;;;5107053;28;20471;-80
2021/11/03 04:04:21;;;;;;;16.80;10.10;;;;;;;;;;5111212;28;20499;-80
2021/11/03 04:06:48;;;;;;;19.83;11.63;;;;;;;;;;5110470;28;20457;-80
2021/11/03 04:09:16;;;;;;;15.93;9.53;;;;;;;;;;5116503;28;20450;-80
2021/11/03 04:11:43;;;;;;;15.13;9.23;;;;;;;;;;5110456;28;20459;-80
2021/11/03 04:14:11;;;;;;;18.73;10.33;;;;;;;;;;5110914;28;20450;-80
2021/11/03 04:16:40;;;;;;;16.93;10.33;;;;;;;;;;5102574;28;20451;-80
2021/11/03 04:19:07;;;;;;;16.67;9.20;;;;;;;;;;5111141;28;20459;-81
2021/11/03 04:21:34;;;;;;;18.03;10.80;;;;;;;;;;5108513;28;20449;-80
2021/11/03 04:24:01;;;;;;;17.10;10.50;;;;;;;;;;5108778;28;20465;-79
2021/11/03 04:26:31;;;;;;;15.30;10.03;;;;;;;;;;5112406;28;20451;-79
2021/11/03 04:28:59;;;;;;;14.87;9.07;;;;;;;;;;5108502;28;20495;-79
2021/11/03 04:31:26;;;;;;;20.50;12.20;;;;;;;;;;5107929;28;20476;-80
2021/11/03 04:33:53;;;;;;;15.60;9.47;;;;;;;;;;5109599;28;20459;-81
2021/11/03 04:36:21;;;;;;;14.47;9.07;;;;;;;;;;5109959;28;20450;-80
2021/11/03 04:38:49;;;;;;;17.97;8.53;;;;;;;;;;5108083;28;20451;-79
2021/11/03 04:41:16;;;;;;;13.70;9.33;;;;;;;;;;5107921;28;20541;-80
2021/11/03 04:43:46;;;;;;;18.20;9.57;;;;;;;;;;5102532;28;20468;-80
2021/11/03 04:46:14;;;;;;;20.00;9.57;;;;;;;;;;5107435;28;20540;-80
2021/11/03 04:48:41;;;;;;;14.00;9.37;;;;;;;;;;5110950;28;20778;-78
2021/11/03 04:51:08;;;;;;;16.13;4.50;;;;;;;;;;5097604;28;20475;-78
2021/11/03 04:53:35;;;;;;;13.80;7.47;;;;;;;;;;5104071;28;20802;-78
2021/11/03 04:56:04;;;;;;;12.77;7.27;;;;;;;;;;5106330;28;20446;-79
2021/11/03 04:58:31;;;;;;;13.10;6.90;;;;;;;;;;5101998;28;20460;-79
2021/11/03 05:01:00;;;;;;;13.10;6.67;;;;;;;;;;5101690;28;20484;-78
2021/11/03 05:03:27;;;;;;;11.17;6.63;;;;;;;;;;5103076;28;20455;-79
2021/11/03 05:05:57;;;;;;;11.60;4.90;;;;;;;;;;5107921;28;20474;-79
2021/11/03 05:08:24;;;;;;;10.10;5.50;;;;;;;;;;5106205;28;20476;-79
2021/11/03 05:10:52;;;;;;;11.00;5.70;;;;;;;;;;5099925;28;20465;-79
2021/11/03 05:13:19;;;;;;;10.60;5.77;;;;;;;;;;5094901;28;20556;-79
2021/11/03 05:15:46;;;;;;;10.87;5.80;;;;;;;;;;5095575;28;20456;-79
2021/11/03 05:18:14;;;;;;;10.93;5.20;;;;;;;;;;5096868;28;20822;-79
2021/11/03 05:20:42;;;;;;;12.40;5.83;;;;;;;;;;5096295;28;20472;-79
2021/11/03 05:23:10;;;;;;;9.80;5.47;;;;;;;;;;5093416;28;20459;-79
2021/11/03 05:25:38;;;;;;;9.77;5.80;;;;;;;;;;5092781;28;20442;-79
2021/11/03 05:28:05;;;;;;;10.53;5.47;;;;;;;;;;5096620;28;20492;-79
2021/11/03 05:30:32;;;;;;;10.43;5.30;;;;;;;;;;5083999;28;20478;-80
2021/11/03 05:33:00;;;;;;;11.00;5.87;;;;;;;;;;5104884;28;20451;-82
2021/11/03 05:35:28;;;;;;;12.37;5.53;;;;;;;;;;5104719;28;20540;-82
2021/11/03 05:37:56;;;;;;;12.07;6.40;;;;;;;;;;5094485;28;20447;-81
2021/11/03 05:40:25;;;;;;;10.40;5.50;;;;;;;;;;5094726;28;20498;-81
2021/11/03 05:42:52;;;;;;;11.37;5.70;;;;;;;;;;5109656;28;20462;-82
2021/11/03 05:45:19;;;;;;;10.87;5.87;;;;;;;;;;5110097;28;20450;-81
2021/11/03 05:47:47;;;;;;;9.83;6.20;;;;;;;;;;5097259;28;20492;-81
2021/11/03 05:50:16;;;;;;;10.70;6.23;;;;;;;;;;5096844;28;20541;-80
2021/11/03 05:52:45;;;;;;;10.13;5.70;;;;;;;;;;5095715;28;20450;-79
2021/11/03 05:55:12;;;;;;;11.47;6.60;;;;;;;;;;5095811;28;20461;-79
2021/11/03 05:57:40;;;;;;;14.50;6.20;;;;;;;;;;5089555;28;20461;-80
2021/11/03 06:00:13;;;;;;;10.53;5.10;;;;;;;;;;5094793;28;20482;-79
2021/11/03 06:02:40;;;;;;;12.60;6.60;;;;;;;;;;5098468;28;20815;-80
2021/11/03 06:08:11;;;;;;;13.60;6.73;;;;;;;;;;5092257;28;20464;-81
2021/11/03 06:10:41;;;;;;;13.07;7.17;;;;;;;;;;5095487;28;20474;-81
2021/11/03 06:16:07;;;;;;;10.90;6.53;;;;;;;;;;5092119;28;20993;-82
2021/11/03 06:18:34;;;;;;;13.73;7.27;;;;;;;;;;5108764;28;20791;-83
2021/11/03 06:21:01;;;;;;;12.20;6.80;;;;;;;;;;5101872;28;20464;-82
2021/11/03 06:23:30;;;;;;;12.67;7.70;;;;;;;;;;5106148;28;20465;-81
2021/11/03 06:25:57;;;;;;;13.80;8.13;;;;;;;;;;5097006;28;20475;-82
2021/11/03 06:28:25;;;;;;;12.13;6.77;;;;;;;;;;5101767;28;20973;-82
2021/11/03 06:30:52;;;;;;;15.27;8.50;;;;;;;;;;5102210;28;20479;-81
2021/11/03 06:33:19;;;;;;;13.40;7.30;;;;;;;;;;5103075;28;20468;-81
2021/11/03 06:35:47;;;;;;;13.37;8.03;;;;;;;;;;5109011;28;20453;-82
2021/11/03 06:38:17;;;;;;;15.50;8.67;;;;;;;;;;5108911;28;20460;-83
2021/11/03 06:40:48;;;;;;;16.00;9.27;;;;;;;;;;5108447;28;20475;-81
2021/11/03 06:43:15;;;;;;;20.90;9.87;;;;;;;;;;5097805;28;20450;-84
2021/11/03 06:45:43;;;;;;;16.90;8.93;;;;;;;;;;5100411;28;20457;-82
2021/11/03 06:48:10;;;;;;;16.53;8.90;;;;;;;;;;5094067;28;20487;-82
2021/11/03 06:50:39;;;;;;;15.93;8.87;;;;;;;;;;5100247;28;20484;-82
2021/11/03 06:53:08;;;;;;;13.50;8.70;;;;;;;;;;5097681;28;20457;-81
2021/11/03 06:55:37;;;;;;;16.47;9.67;;;;;;;;;;5106914;28;20457;-81
2021/11/03 06:58:05;;;;;;;15.50;9.30;;;;;;;;;;5101358;28;20806;-81
2021/11/03 07:00:34;;;;;;;15.60;8.93;;;;;;;;;;5107124;28;20584;-82
2021/11/03 07:03:01;;;;;;;15.90;8.47;;;;;;;;;;5095888;28;20476;-83
2021/11/03 07:05:28;;;;;;;15.70;8.67;;;;;;;;;;5096148;28;20449;-82
2021/11/03 07:07:56;;;;;;;14.93;7.77;;;;;;;;;;5099260;28;20956;-82
2021/11/03 07:10:24;;;;;;;14.83;8.00;;;;;;;;;;5098750;28;20555;-81
2021/11/03 07:12:51;;;;;;;14.67;8.13;;;;;;;;;;5090410;28;20953;-82
2021/11/03 07:15:20;;;;;;;14.70;8.87;;;;;;;;;;5108758;28;20452;-82
2021/11/03 07:17:48;;;;;;;15.23;8.40;;;;;;;;;;5101527;28;20450;-82
2021/11/03 07:20:16;;;;;;;15.33;8.40;;;;;;;;;;5110663;28;20558;-83
2021/11/03 07:22:43;;;;;;;13.53;8.03;;;;;;;;;;5099323;28;20445;-82
2021/11/03 07:25:10;;;;;;;19.23;9.70;;;;;;;;;;5113546;28;20448;-83
2021/11/03 07:27:37;;;;;;;13.33;9.20;;;;;;;;;;5109117;28;20453;-82
2021/11/03 07:30:05;;;;;;;16.83;10.20;;;;;;;;;;5098182;28;20489;-82
2021/11/03 07:32:33;;;;;;;20.83;9.30;;;;;;;;;;5109580;28;20471;-82
2021/11/03 07:35:00;;;;;;;13.83;7.83;;;;;;;;;;5111275;28;20447;-81
2021/11/03 07:37:27;;;;;;;19.63;10.20;;;;;;;;;;5107868;28;20456;-82
2021/11/03 07:39:54;;;;;;;19.20;10.67;;;;;;;;;;5102364;28;20473;-81
2021/11/03 07:42:21;;;;;;;18.70;10.20;;;;;;;;;;5105839;28;20467;-82
2021/11/03 07:44:51;;;;;;;19.03;9.70;;;;;;;;;;5110588;28;20959;-81
2021/11/03 07:47:18;;;;;;;15.37;9.13;;;;;;;;;;5094175;28;21030;-84
2021/11/03 07:49:48;;;;;;;16.53;9.80;;;;;;;;;;5102108;28;20544;-81
2021/11/03 07:52:16;;;;;;;14.97;9.17;;;;;;;;;;5108036;28;20449;-83
2021/11/03 07:54:43;;;;;;;16.20;8.20;;;;;;;;;;5107417;28;20471;-82
2021/11/03 07:57:13;;;;;;;14.03;8.70;;;;;;;;;;5102288;28;20869;-83
2021/11/03 07:59:40;;;;;;;15.63;9.70;;;;;;;;;;5106757;28;21018;-82
2021/11/03 08:02:08;;;;;;;17.50;10.30;;;;;;;;;;5106916;28;20457;-82
2021/11/03 08:04:35;;;;;;;18.50;9.27;;;;;;;;;;5098025;28;20450;-82
2021/11/03 08:07:03;;;;;;;16.00;9.87;;;;;;;;;;5099031;28;20435;-82
2021/11/03 08:09:31;;;;;;;16.47;10.60;;;;;;;;;;5092424;28;20569;-83
2021/11/03 08:12:00;;;;;;;18.70;11.83;;;;;;;;;;5106290;28;20478;-82
2021/11/03 08:14:28;;;;;;;19.30;10.70;;;;;;;;;;5101986;28;20469;-83
2021/11/03 08:16:56;;;;;;;16.37;9.90;;;;;;;;;;5104402;28;20543;-83
2021/11/03 08:19:25;;;;;;;25.53;11.83;;;;;;;;;;5097129;28;20453;-83
2021/11/03 08:21:52;;;;;;;21.73;10.43;;;;;;;;;;5102239;28;20456;-83
2021/11/03 08:24:21;;;;;;;16.87;10.20;;;;;;;;;;5106207;28;20520;-83
2021/11/03 08:26:51;;;;;;;19.80;10.47;;;;;;;;;;5099527;28;20491;-83
2021/11/03 08:29:19;;;;;;;17.90;10.97;;;;;;;;;;5097271;28;20486;-83
2021/11/03 08:31:46;;;;;;;17.13;9.90;;;;;;;;;;5106879;28;20460;-83
2021/11/03 08:34:13;;;;;;;17.47;10.33;;;;;;;;;;5097889;28;20500;-83
2021/11/03 08:36:41;;;;;;;16.00;9.40;;;;;;;;;;5095900;28;20454;-82
2021/11/03 08:39:09;;;;;;;19.43;10.40;;;;;;;;;;5100533;28;20451;-82
2021/11/03 08:41:37;;;;;;;16.43;9.20;;;;;;;;;;5101632;28;20460;-83
2021/11/03 08:44:05;;;;;;;16.60;9.77;;;;;;;;;;5094325;28;20452;-82
2021/11/03 08:46:32;;;;;;;16.33;10.33;;;;;;;;;;5097721;28;20458;-81
2021/11/03 08:49:00;;;;;;;17.03;8.67;;;;;;;;;;5084344;28;20494;-83
2021/11/03 08:51:27;;;;;;;14.47;8.20;;;;;;;;;;5095960;28;20470;-83
2021/11/03 08:53:55;;;;;;;19.90;10.07;;;;;;;;;;5096883;28;20970;-84
2021/11/03 08:56:23;;;;;;;15.03;9.33;;;;;;;;;;5097447;28;20458;-82
2021/11/03 08:58:51;;;;;;;15.77;8.53;;;;;;;;;;5097613;28;20466;-83
2021/11/03 09:01:19;;;;;;;18.17;8.80;;;;;;;;;;5092767;28;20474;-82
2021/11/03 09:03:46;;;;;;;16.10;9.50;;;;;;;;;;5091707;28;20447;-83
2021/11/03 09:06:13;;;;;;;18.53;9.97;;;;;;;;;;5093410;28;20958;-83
2021/11/03 09:08:41;;;;;;;14.03;8.67;;;;;;;;;;5095543;28;20490;-83
2021/11/03 09:11:08;;;;;;;16.50;10.00;;;;;;;;;;5090729;28;20458;-82
2021/11/03 09:13:36;;;;;;;20.83;10.80;;;;;;;;;;5092033;28;20849;-83
2021/11/03 09:16:04;;;;;;;16.37;9.80;;;;;;;;;;5085402;28;20447;-82
2021/11/03 09:18:32;;;;;;;16.90;10.27;;;;;;;;;;5096133;28;20530;-82
2021/11/03 09:21:00;;;;;;;17.77;10.63;;;;;;;;;;5096264;28;20474;-82
2021/11/03 09:23:28;;;;;;;18.67;10.50;;;;;;;;;;5095165;28;20453;-83
2021/11/03 09:25:56;;;;;;;17.10;9.90;;;;;;;;;;5094291;28;20460;-83
2021/11/03 09:28:24;;;;;;;18.63;10.70;;;;;;;;;;5091344;28;20489;-83
2021/11/03 09:30:51;;;;;;;20.73;11.70;;;;;;;;;;5093430;28;20695;-84
2021/11/03 09:33:20;;;;;;;19.50;11.13;;;;;;;;;;5090999;28;20456;-82
2021/11/03 09:35:49;;;;;;;19.43;10.30;;;;;;;;;;5092353;28;20446;-83
2021/11/03 09:38:17;;;;;;;18.93;11.03;;;;;;;;;;5090024;28;20483;-82
2021/11/03 09:40:48;;;;;;;24.73;11.90;;;;;;;;;;5089982;28;20473;-83
2021/11/03 09:43:19;;;;;;;22.20;11.40;;;;;;;;;;5091630;28;20452;-83
2021/11/03 09:45:46;;;;;;;22.93;12.57;;;;;;;;;;5089322;28;20446;-83
2021/11/03 09:48:18;;;;;;;18.23;11.50;;;;;;;;;;5098311;28;20929;-83
2021/11/03 09:50:48;;;;;;;25.07;12.50;;;;;;;;;;5099571;28;20488;-83
2021/11/03 09:53:21;;;;;;;18.67;12.30;;;;;;;;;;5099764;28;20944;-83
2021/11/03 09:55:48;;;;;;;20.17;11.50;;;;;;;;;;5090054;28;20459;-84
2021/11/03 09:58:25;;;;;;;19.90;13.07;;;;;;;;;;5095925;28;20452;-83
2021/11/03 10:00:55;;;;;;;19.20;11.97;;;;;;;;;;5113747;28;20480;-83
2021/11/03 10:03:28;;;;;;;20.47;12.00;;;;;;;;;;5105318;28;20461;-83
2021/11/03 10:06:00;;;;;;;18.60;10.07;;;;;;;;;;5108543;28;20452;-82
2021/11/03 10:08:30;;;;;;;20.90;12.27;;;;;;;;;;5101856;28;20826;-83
2021/11/03 10:10:58;;;;;;;19.60;11.30;;;;;;;;;;5100812;28;20494;-83
2021/11/03 10:13:26;;;;;;;20.63;10.43;;;;;;;;;;5095837;28;20953;-83
2021/11/03 10:15:54;;;;;;;16.87;10.37;;;;;;;;;;5111663;28;20521;-83
2021/11/03 10:18:22;;;;;;;17.47;10.83;;;;;;;;;;5114234;28;20450;-83
2021/11/03 10:20:59;;;;;;;18.27;11.60;;;;;;;;;;5109785;28;20459;-83
2021/11/03 10:23:31;;;;;;;18.97;9.37;;;;;;;;;;5113321;28;20441;-83
2021/11/03 10:26:01;;;;;;;20.83;12.10;;;;;;;;;;5115395;28;20458;-83
2021/11/03 10:28:40;;;;;;;20.80;11.57;;;;;;;;;;5116240;28;20440;-84
2021/11/03 10:31:09;;;;;;;18.50;12.63;;;;;;;;;;5110960;28;20484;-81
2021/11/03 10:33:39;;;;;;;20.53;12.70;;;;;;;;;;5108814;28;20459;-82
2021/11/03 10:36:14;;;;;;;19.90;11.83;;;;;;;;;;5103665;28;20457;-83
2021/11/03 10:38:44;;;;;;;15.20;9.80;;;;;;;;;;5102681;28;20476;-82
2021/11/03 10:41:18;;;;;;;17.27;11.20;;;;;;;;;;5100364;28;20466;-82
2021/11/03 10:43:45;;;;;;;16.97;11.37;;;;;;;;;;5100018;28;20447;-82
2021/11/03 10:46:18;;;;;;;18.00;11.80;;;;;;;;;;5100914;28;20443;-81
2021/11/03 10:48:55;;;;;;;18.40;11.40;;;;;;;;;;5097021;28;20458;-82
2021/11/03 10:51:24;;;;;;;18.60;11.57;;;;;;;;;;5101342;28;20859;-80
2021/11/03 10:53:55;;;;;;;18.63;11.50;;;;;;;;;;5111697;28;20462;-81
2021/11/03 10:56:27;;;;;;;16.27;10.47;;;;;;;;;;5113844;28;20451;-81
2021/11/03 10:58:57;;;;;;;19.07;11.47;;;;;;;;;;5104063;28;20590;-85
2021/11/03 11:01:28;;;;;;;17.53;10.27;;;;;;;;;;5098789;28;20522;-81
2021/11/03 11:03:59;;;;;;;17.10;9.97;;;;;;;;;;5104205;28;20973;-81
2021/11/03 11:06:28;;;;;;;19.43;9.90;;;;;;;;;;5103288;28;20444;-81
2021/11/03 11:08:58;;;;;;;14.83;8.80;;;;;;;;;;5103033;28;20454;-82
2021/11/03 11:11:29;;;;;;;17.03;10.03;;;;;;;;;;5097794;28;20482;-82
2021/11/03 11:14:00;;;;;;;21.33;9.80;;;;;;;;;;5099511;28;20796;-81
2021/11/03 11:16:31;;;;;;;16.30;9.03;;;;;;;;;;5099915;28;20461;-81
2021/11/03 11:19:04;;;;;;;21.27;9.53;;;;;;;;;;5099478;28;20895;-81
2021/11/03 11:21:37;;;;;;;20.80;9.90;;;;;;;;;;5096874;28;20479;-81
2021/11/03 11:24:11;;;;;;;15.60;10.90;;;;;;;;;;5100260;28;20487;-82
2021/11/03 11:26:41;;;;;;;15.83;9.27;;;;;;;;;;5098365;28;20447;-81
2021/11/03 11:29:12;;;;;;;17.70;9.80;;;;;;;;;;5092648;28;20458;-81
2021/11/03 11:31:46;;;;;;;13.20;8.90;;;;;;;;;;5097998;28;20477;-81
2021/11/03 11:34:21;;;;;;;13.33;8.47;;;;;;;;;;5098787;28;20475;-82
2021/11/03 11:36:50;;;;;;;13.37;8.30;;;;;;;;;;5097416;28;20930;-83
2021/11/03 11:39:23;;;;;;;15.57;9.33;;;;;;;;;;5094824;28;20456;-82
2021/11/03 11:41:57;;;;;;;15.33;8.60;;;;;;;;;;5098198;28;20453;-81
2021/11/03 11:44:26;;;;;;;13.80;8.57;;;;;;;;;;5095233;28;20452;-82
2021/11/03 11:46:54;;;;;;;14.30;9.30;;;;;;;;;;5096261;28;20818;-83
2021/11/03 11:49:22;;;;;;;17.30;10.50;;;;;;;;;;5105177;28;20464;-81
2021/11/03 11:51:50;;;;;;;15.90;9.93;;;;;;;;;;5099021;28;20464;-82
2021/11/03 11:54:27;;;;;;;23.47;11.47;;;;;;;;;;5096403;28;20462;-81
2021/11/03 11:57:13;;;;;;;17.97;11.10;;;;;;;;;;5097774;28;20966;-83
2021/11/03 12:00:00;;;;;;;17.23;10.67;;;;;;;;;;5091440;28;20517;-82
2021/11/03 12:02:27;;;;;;;14.50;9.37;;;;;;;;;;5097815;28;20507;-83
2021/11/03 12:05:13;;;;;;;16.20;9.97;;;;;;;;;;5094507;28;20455;-81
2021/11/03 12:07:41;;;;;;;14.13;9.77;;;;;;;;;;5108554;28;20961;-80
2021/11/03 12:10:30;;;;;;;18.47;10.93;;;;;;;;;;5093129;28;20487;-80
2021/11/03 12:13:16;;;;;;;18.47;11.93;;;;;;;;;;5098184;28;20470;-81
2021/11/03 12:15:45;;;;;;;16.47;11.33;;;;;;;;;;5098145;28;20455;-80
2021/11/03 12:18:16;;;;;;;14.70;9.93;;;;;;;;;;5097703;28;20441;-81
2021/11/03 12:20:45;;;;;;;16.17;10.50;;;;;;;;;;5099238;28;20462;-81
2021/11/03 12:23:31;;;;;;;14.73;9.93;;;;;;;;;;5111935;28;20455;-83
2021/11/03 12:26:21;;;;;;;15.87;10.13;;;;;;;;;;5096727;28;20458;-81
2021/11/03 12:28:54;;;;;;;16.30;10.00;;;;;;;;;;5103642;28;20456;-81
2021/11/03 12:31:29;;;;;;;14.23;8.60;;;;;;;;;;5101079;28;20607;-81
2021/11/03 12:34:15;;;;;;;16.63;10.30;;;;;;;;;;5091264;28;20462;-80
2021/11/03 12:36:52;;;;;;;16.50;9.50;;;;;;;;;;5094550;28;20456;-80
2021/11/03 12:39:33;;;;;;;17.17;9.93;;;;;;;;;;5098217;28;20453;-81
2021/11/03 12:42:02;;;;;;;15.93;10.00;;;;;;;;;;5096114;28;20470;-80
2021/11/03 12:44:32;;;;;;;17.33;10.80;;;;;;;;;;5088424;28;20448;-80
2021/11/03 12:46:59;;;;;;;17.57;10.17;;;;;;;;;;5088443;28;20461;-80
2021/11/03 12:49:28;;;;;;;16.03;10.43;;;;;;;;;;5101715;28;20956;-80
2021/11/03 12:51:58;;;;;;;15.73;10.70;;;;;;;;;;5095232;28;20448;-80
2021/11/03 12:54:27;;;;;;;19.83;10.07;;;;;;;;;;5097490;28;20966;-81
2021/11/03 12:56:56;;;;;;;15.10;10.67;;;;;;;;;;5098349;28;20443;-80
2021/11/03 12:59:26;;;;;;;15.10;10.27;;;;;;;;;;5100318;28;20450;-80
2021/11/03 13:01:55;;;;;;;18.23;11.20;;;;;;;;;;5100659;28;20886;-80
2021/11/03 13:04:24;;;;;;;18.83;11.90;;;;;;;;;;5091321;28;20457;-80
2021/11/03 13:06:53;;;;;;;19.07;12.00;;;;;;;;;;5097104;28;20985;-80
2021/11/03 13:09:28;;;;;;;18.03;12.10;;;;;;;;;;5102151;28;20451;-80
2021/11/03 13:11:55;;;;;;;18.83;11.43;;;;;;;;;;5098580;28;20481;-80
2021/11/03 13:14:24;;;;;;;19.70;13.40;;;;;;;;;;5101060;28;21136;-80
2021/11/03 13:16:55;;;;;;;18.60;12.20;;;;;;;;;;5096346;28;20453;-81
2021/11/03 13:19:33;;;;;;;22.30;14.33;;;;;;;;;;5092658;28;20451;-80
2021/11/03 13:22:01;;;;;;;18.47;13.03;;;;;;;;;;5086404;28;20455;-80
2021/11/03 13:24:29;;;;;;;18.40;11.50;;;;;;;;;;5102779;28;20559;-79
2021/11/03 13:26:57;;;;;;;20.67;11.90;;;;;;;;;;5097438;28;20527;-80
2021/11/03 13:29:27;;;;;;;21.00;12.40;;;;;;;;;;5095094;28;20957;-81
2021/11/03 13:32:14;;;;;;;19.90;12.83;;;;;;;;;;5095667;28;20478;-81
2021/11/03 13:34:46;;;;;;;19.30;11.60;;;;;;;;;;5095421;28;20459;-81
2021/11/03 13:37:19;;;;;;;33.17;17.37;;;;;;;;;;5086377;28;20443;-81
2021/11/03 13:39:53;;;;;;;21.97;13.00;;;;;;;;;;5096426;28;20463;-81
2021/11/03 13:42:39;;;;;;;20.43;12.73;;;;;;;;;;5095350;28;20450;-81
2021/11/03 13:45:08;;;;;;;24.77;14.40;;;;;;;;;;5095122;28;20482;-81
2021/11/03 13:47:39;;;;;;;22.80;14.90;;;;;;;;;;5097198;28;20458;-81
2021/11/03 13:50:15;;;;;;;19.83;12.43;;;;;;;;;;5100768;28;20475;-80
2021/11/03 13:52:53;;;;;;;25.80;16.20;;;;;;;;;;5083378;28;20483;-81
2021/11/03 13:55:23;;;;;;;21.50;14.77;;;;;;;;;;5094407;28;20446;-81
2021/11/03 13:57:53;;;;;;;20.87;13.60;;;;;;;;;;5091708;28;20442;-81
2021/11/03 14:00:21;;;;;;;25.00;14.20;;;;;;;;;;5100139;28;20475;-82
2021/11/03 14:02:50;;;;;;;19.97;13.90;;;;;;;;;;5096804;28;20957;-81
2021/11/03 14:05:32;;;;;;;24.37;13.97;;;;;;;;;;5099021;28;20452;-81
2021/11/03 14:08:00;;;;;;;22.80;15.07;;;;;;;;;;5095706;28;20883;-81
2021/11/03 14:10:30;;;;;;;26.70;16.83;;;;;;;;;;5096533;28;20497;-81
2021/11/03 14:12:57;;;;;;;22.83;14.43;;;;;;;;;;5093452;28;20488;-81
2021/11/03 14:15:24;;;;;;;29.43;16.83;;;;;;;;;;5102700;28;20909;-81
2021/11/03 14:17:53;;;;;;;31.00;18.27;;;;;;;;;;5097647;28;20820;-81
2021/11/03 14:20:34;;;;;;;36.67;20.40;;;;;;;;;;5094315;28;20470;-82
2021/11/03 14:23:01;;;;;;;30.23;17.27;;;;;;;;;;5105979;28;20453;-80
2021/11/03 14:25:31;;;;;;;26.27;16.00;;;;;;;;;;5103252;28;20557;-80
2021/11/03 14:27:58;;;;;;;22.57;13.63;;;;;;;;;;5102141;28;20439;-80
2021/11/03 14:30:31;;;;;;;22.33;14.70;;;;;;;;;;5103798;28;20478;-80
2021/11/03 14:32:59;;;;;;;28.00;18.07;;;;;;;;;;5104646;28;20454;-79
2021/11/03 14:35:28;;;;;;;24.70;15.73;;;;;;;;;;5109002;28;20472;-80
2021/11/03 14:37:55;;;;;;;27.63;17.03;;;;;;;;;;5102025;28;20451;-81
2021/11/03 14:40:24;;;;;;;25.50;17.03;;;;;;;;;;5100216;28;20501;-79
2021/11/03 14:42:52;;;;;;;37.23;17.17;;;;;;;;;;5098400;28;20456;-79